Bangor, Washington
Current Conditions -  °F | °C
As of 9:55 PM on Thursday 30 Oct 2014 (Local Time) from KPWT Reporting Station
Overcast Overcast  
Wind Chill: 54°   Ceiling: 4700
Heat Index: 54°   Visibility: 10mi
Dew Point: 52°   Wind: 3mph
Humidity: 94%   Direction: 180°S
Pressure: 29.78"   Gusts: NA
Location:  47.7228°N, 122.714°W
Report Text: KPWT 310455Z AUTO 18003KT 10SM OVC047 12/11 A2978 RMK AO1
Loading
Personal Weather Stations






























Interactive Weather Map
Tropical Storm Tracking
New forecast layout! Learn more

10-Day Weather Forecast

Advertisements
Track Severe Weather on mobile